Time;durP1;ratioP1;P1;durP2;ratioP2;P2;SDS_P1;SDS_P2;PMS_P1;PMS_P2;Temp;Humidity;BMP_temperature;BMP_pressure;BME280_temperature;BME280_humidity;BME280_pressure;Samples;Min_cycle;Max_cycle;Signal;HPM_P1;HPM_P2
2023/02/07 00:00:26;;;;;;;8.82;5.65;;;;;;;;;;6156921;28;20050;-66
2023/02/07 00:03:28;;;;;;;10.68;5.05;;;;;;;;;;6156911;28;20155;-66
2023/02/07 00:06:32;;;;;;;11.98;5.40;;;;;;;;;;6159865;28;20054;-66
2023/02/07 00:09:36;;;;;;;10.80;5.85;;;;;;;;;;6159648;28;20055;-66
2023/02/07 00:12:37;;;;;;;10.65;5.70;;;;;;;;;;6155309;28;20066;-66
2023/02/07 00:15:39;;;;;;;10.68;5.38;;;;;;;;;;6157209;28;20059;-67
2023/02/07 00:18:41;;;;;;;9.30;6.35;;;;;;;;;;6159957;28;20059;-66
2023/02/07 00:21:42;;;;;;;10.43;6.13;;;;;;;;;;6154175;28;20047;-66
2023/02/07 00:24:46;;;;;;;11.77;6.65;;;;;;;;;;6155915;28;20058;-66
2023/02/07 00:27:47;;;;;;;12.82;7.43;;;;;;;;;;6159990;28;20059;-67
2023/02/07 00:30:49;;;;;;;12.93;7.47;;;;;;;;;;6160044;28;20055;-66
2023/02/07 00:33:52;;;;;;;16.15;8.02;;;;;;;;;;6157366;28;20100;-66
2023/02/07 00:36:54;;;;;;;14.07;7.50;;;;;;;;;;6158075;28;20055;-67
2023/02/07 00:39:57;;;;;;;13.23;8.30;;;;;;;;;;6159199;28;20109;-66
2023/02/07 00:42:58;;;;;;;15.18;8.98;;;;;;;;;;6164258;28;20059;-67
2023/02/07 00:46:05;;;;;;;14.15;8.05;;;;;;;;;;6158982;28;20338;-67
2023/02/07 00:49:07;;;;;;;14.18;8.05;;;;;;;;;;6157673;28;20062;-66
2023/02/07 00:52:08;;;;;;;13.13;7.45;;;;;;;;;;6156834;28;20069;-66
2023/02/07 00:55:11;;;;;;;13.88;7.97;;;;;;;;;;6157768;28;20059;-67
2023/02/07 00:58:13;;;;;;;13.32;7.75;;;;;;;;;;6155452;28;20057;-66
2023/02/07 01:01:15;;;;;;;13.77;8.18;;;;;;;;;;6158501;28;20081;-66
2023/02/07 01:04:17;;;;;;;13.27;7.82;;;;;;;;;;6157655;28;20236;-66
2023/02/07 01:07:18;;;;;;;12.70;8.13;;;;;;;;;;6155227;28;20063;-67
2023/02/07 01:10:23;;;;;;;16.27;8.10;;;;;;;;;;6158422;28;20212;-66
2023/02/07 01:13:25;;;;;;;14.50;9.18;;;;;;;;;;6155749;28;20055;-67
2023/02/07 01:16:28;;;;;;;15.07;8.20;;;;;;;;;;6156792;28;20106;-66
2023/02/07 01:19:30;;;;;;;15.00;8.52;;;;;;;;;;6156440;28;20047;-67
2023/02/07 01:22:32;;;;;;;14.80;8.27;;;;;;;;;;6156113;28;20051;-66
2023/02/07 01:25:35;;;;;;;15.90;8.60;;;;;;;;;;6158737;28;20059;-66
2023/02/07 01:28:37;;;;;;;14.20;8.52;;;;;;;;;;6156581;28;20114;-67
2023/02/07 01:31:38;;;;;;;16.08;9.13;;;;;;;;;;6150544;28;20059;-66
2023/02/07 01:34:40;;;;;;;15.75;8.23;;;;;;;;;;6155659;28;20051;-66
2023/02/07 01:37:42;;;;;;;14.77;8.05;;;;;;;;;;6156590;28;20065;-66
2023/02/07 01:40:45;;;;;;;16.85;9.52;;;;;;;;;;6154607;28;20062;-67
2023/02/07 01:44:01;;;;;;;15.13;8.77;;;;;;;;;;6159398;28;20240;-66
2023/02/07 01:47:03;;;;;;;17.38;9.30;;;;;;;;;;6157051;28;20055;-66
2023/02/07 01:50:05;;;;;;;19.48;9.38;;;;;;;;;;6156209;28;20055;-66
2023/02/07 01:53:07;;;;;;;14.70;8.27;;;;;;;;;;6154186;28;20055;-66
2023/02/07 01:56:13;;;;;;;20.23;9.63;;;;;;;;;;6155638;28;20047;-67
2023/02/07 01:59:15;;;;;;;16.10;9.57;;;;;;;;;;6152817;28;20109;-66
2023/02/07 02:02:19;;;;;;;15.88;8.85;;;;;;;;;;6157828;28;20335;-66
2023/02/07 02:05:21;;;;;;;15.55;9.98;;;;;;;;;;6155930;28;20062;-66
2023/02/07 02:08:24;;;;;;;17.65;9.77;;;;;;;;;;6158488;28;20063;-66
2023/02/07 02:11:58;;;;;;;16.23;9.07;;;;;;;;;;6154706;28;20061;-66
2023/02/07 02:15:17;;;;;;;18.17;9.80;;;;;;;;;;6152993;28;20063;-67
2023/02/07 02:18:41;;;;;;;17.17;9.15;;;;;;;;;;6157419;28;20055;-67
2023/02/07 02:22:22;;;;;;;18.98;9.50;;;;;;;;;;6158593;28;20126;-66
2023/02/07 02:26:02;;;;;;;17.02;8.93;;;;;;;;;;6150600;28;20055;-67
2023/02/07 02:29:29;;;;;;;18.42;9.80;;;;;;;;;;6146463;28;20047;-66
2023/02/07 02:33:02;;;;;;;15.15;8.95;;;;;;;;;;6159154;28;20051;-66
2023/02/07 02:36:10;;;;;;;18.60;9.65;;;;;;;;;;6163679;28;20062;-66
2023/02/07 02:39:18;;;;;;;14.82;9.25;;;;;;;;;;6156792;28;20058;-66
2023/02/07 02:42:25;;;;;;;15.00;9.55;;;;;;;;;;6160958;28;20054;-67
2023/02/07 02:45:29;;;;;;;14.73;10.02;;;;;;;;;;6165020;28;20321;-67
2023/02/07 02:48:32;;;;;;;;;;;;;;;;;;6160437;28;20065;-66
2023/02/07 02:51:34;;;;;;;16.25;9.82;;;;;;;;;;6155066;28;20229;-66
2023/02/07 02:54:37;;;;;;;21.50;10.18;;;;;;;;;;6156619;28;20055;-66
2023/02/07 02:57:52;;;;;;;17.55;10.00;;;;;;;;;;6155548;28;20055;-67
2023/02/07 03:00:57;;;;;;;;;;;;;;;;;;6153909;28;20055;-66
2023/02/07 03:04:12;;;;;;;25.20;10.30;;;;;;;;;;6158253;28;19918;-66
2023/02/07 03:07:26;;;;;;;16.20;9.73;;;;;;;;;;6157230;28;20082;-67
2023/02/07 03:10:32;;;;;;;21.98;9.50;;;;;;;;;;6154093;28;20385;-67
2023/02/07 03:13:37;;;;;;;21.67;10.32;;;;;;;;;;6153175;28;20054;-67
2023/02/07 03:16:43;;;;;;;16.65;9.95;;;;;;;;;;6155432;28;20327;-66
2023/02/07 03:19:50;;;;;;;16.45;10.23;;;;;;;;;;6154069;28;20061;-66
2023/02/07 03:22:53;;;;;;;19.58;10.73;;;;;;;;;;6157014;28;20057;-66
2023/02/07 03:25:57;;;;;;;15.68;9.70;;;;;;;;;;6153287;28;20181;-66
2023/02/07 03:28:59;;;;;;;17.98;11.30;;;;;;;;;;6156270;28;20070;-66
2023/02/07 03:32:04;;;;;;;18.65;10.70;;;;;;;;;;6157876;28;20055;-66
2023/02/07 03:35:09;;;;;;;15.88;9.48;;;;;;;;;;6158275;28;20429;-66
2023/02/07 03:38:12;;;;;;;16.95;10.43;;;;;;;;;;6157880;28;20338;-66
2023/02/07 03:41:18;;;;;;;16.80;10.32;;;;;;;;;;6161385;28;20405;-66
2023/02/07 03:44:22;;;;;;;20.38;10.55;;;;;;;;;;6156724;28;20208;-66
2023/02/07 03:47:25;;;;;;;19.92;11.00;;;;;;;;;;6157930;28;20355;-67
2023/02/07 03:50:28;;;;;;;18.75;10.48;;;;;;;;;;6160675;28;20055;-66
2023/02/07 03:53:30;;;;;;;16.23;10.13;;;;;;;;;;6158748;28;20382;-66
2023/02/07 03:56:32;;;;;;;20.05;11.20;;;;;;;;;;6159451;28;20054;-67
2023/02/07 03:59:33;;;;;;;21.65;11.75;;;;;;;;;;6159159;28;20062;-66
2023/02/07 04:02:35;;;;;;;20.40;10.30;;;;;;;;;;6160380;28;20064;-66
2023/02/07 04:05:38;;;;;;;20.45;11.05;;;;;;;;;;6157903;28;20105;-66
2023/02/07 04:08:40;;;;;;;18.13;10.98;;;;;;;;;;6162986;28;20050;-66
2023/02/07 04:11:42;;;;;;;21.25;10.73;;;;;;;;;;6158342;28;20055;-66
2023/02/07 04:14:43;;;;;;;18.10;9.73;;;;;;;;;;6158679;28;20067;-66
2023/02/07 04:17:45;;;;;;;18.83;10.70;;;;;;;;;;6158589;28;20065;-66
2023/02/07 04:20:48;;;;;;;20.20;11.10;;;;;;;;;;6155768;28;20059;-66
2023/02/07 04:23:49;;;;;;;17.85;10.52;;;;;;;;;;6158828;28;20115;-66
2023/02/07 04:26:51;;;;;;;17.90;10.38;;;;;;;;;;6157130;28;20334;-66
2023/02/07 04:29:53;;;;;;;16.73;10.50;;;;;;;;;;6158231;28;20059;-66
2023/02/07 04:32:54;;;;;;;18.95;10.32;;;;;;;;;;6156807;28;20428;-66
2023/02/07 04:35:59;;;;;;;16.67;9.98;;;;;;;;;;6159319;28;20071;-67
2023/02/07 04:39:01;;;;;;;16.05;9.00;;;;;;;;;;6160047;28;20078;-66
2023/02/07 04:42:06;;;;;;;18.55;8.90;;;;;;;;;;6155493;28;20062;-67
2023/02/07 04:45:09;;;;;;;15.88;9.32;;;;;;;;;;6160599;28;20405;-67
2023/02/07 04:48:10;;;;;;;17.75;9.43;;;;;;;;;;6159428;28;20324;-66
2023/02/07 04:51:14;;;;;;;19.65;9.77;;;;;;;;;;6158586;28;20055;-67
2023/02/07 04:54:15;;;;;;;15.95;9.43;;;;;;;;;;6160162;28;20055;-66
2023/02/07 04:57:17;;;;;;;18.75;8.98;;;;;;;;;;6160057;28;20058;-66
2023/02/07 05:00:19;;;;;;;16.58;9.30;;;;;;;;;;6156356;28;20050;-66
2023/02/07 05:03:21;;;;;;;18.55;8.77;;;;;;;;;;6159167;28;20062;-66
2023/02/07 05:06:24;;;;;;;14.60;8.15;;;;;;;;;;6158124;28;20844;-67
2023/02/07 05:09:25;;;;;;;13.00;7.65;;;;;;;;;;6156955;28;20343;-67
2023/02/07 05:12:27;;;;;;;15.00;7.05;;;;;;;;;;6156804;28;20256;-67
2023/02/07 05:15:30;;;;;;;15.30;8.52;;;;;;;;;;6157559;28;20059;-66
2023/02/07 05:18:32;;;;;;;12.48;7.15;;;;;;;;;;6158544;28;20047;-66
2023/02/07 05:21:35;;;;;;;14.38;8.13;;;;;;;;;;6154368;28;20059;-66
2023/02/07 05:24:37;;;;;;;14.55;8.30;;;;;;;;;;6158260;28;20054;-67
2023/02/07 05:27:39;;;;;;;14.30;8.65;;;;;;;;;;6145672;28;20054;-66
2023/02/07 05:30:40;;;;;;;18.42;8.75;;;;;;;;;;6154844;28;20047;-66
2023/02/07 05:33:41;;;;;;;15.43;8.38;;;;;;;;;;6151809;28;20061;-67
2023/02/07 05:36:44;;;;;;;15.00;7.97;;;;;;;;;;6155576;28;20051;-66
2023/02/07 05:39:46;;;;;;;14.65;8.30;;;;;;;;;;6159340;28;20113;-66
2023/02/07 05:42:47;;;;;;;15.30;8.75;;;;;;;;;;6153668;28;20062;-67
2023/02/07 05:45:49;;;;;;;14.90;7.63;;;;;;;;;;6155811;28;20047;-66
2023/02/07 05:48:51;;;;;;;15.60;7.88;;;;;;;;;;6156803;28;20063;-66
2023/02/07 05:51:54;;;;;;;15.73;8.52;;;;;;;;;;6153553;28;20244;-66
2023/02/07 05:54:55;;;;;;;17.58;8.63;;;;;;;;;;6156371;28;20069;-66
2023/02/07 05:57:57;;;;;;;16.27;8.15;;;;;;;;;;6162575;28;20077;-65
2023/02/07 06:00:59;;;;;;;15.57;8.20;;;;;;;;;;6154268;28;20055;-67
2023/02/07 06:04:00;;;;;;;15.40;9.00;;;;;;;;;;6156408;28;20243;-66
2023/02/07 06:07:04;;;;;;;14.98;7.90;;;;;;;;;;6153216;28;20055;-68
2023/02/07 06:10:06;;;;;;;15.02;9.10;;;;;;;;;;6156117;28;21069;-67
2023/02/07 06:13:08;;;;;;;16.40;8.60;;;;;;;;;;6156217;28;20059;-67
2023/02/07 06:16:10;;;;;;;15.80;9.07;;;;;;;;;;6156109;28;20059;-67
2023/02/07 06:19:12;;;;;;;18.08;8.60;;;;;;;;;;6153146;28;20070;-67
2023/02/07 06:22:16;;;;;;;10.48;6.68;;;;;;;;;;6154213;28;20270;-67
2023/02/07 06:25:18;;;;;;;15.73;7.28;;;;;;;;;;6158762;28;20054;-67
2023/02/07 06:28:20;;;;;;;16.45;6.88;;;;;;;;;;6152539;28;20334;-67
2023/02/07 06:31:21;;;;;;;10.82;6.60;;;;;;;;;;6153936;28;20403;-67
2023/02/07 06:34:23;;;;;;;11.68;6.85;;;;;;;;;;6155277;28;20141;-68
2023/02/07 06:37:26;;;;;;;13.57;7.38;;;;;;;;;;6153970;28;20144;-67
2023/02/07 06:40:28;;;;;;;12.45;6.50;;;;;;;;;;6154512;28;20043;-67
2023/02/07 06:43:29;;;;;;;10.13;5.55;;;;;;;;;;6155421;28;20055;-67
2023/02/07 06:46:31;;;;;;;13.15;5.72;;;;;;;;;;6156627;28;20145;-67
2023/02/07 06:49:33;;;;;;;13.07;5.93;;;;;;;;;;6154605;28;20299;-67
2023/02/07 06:52:36;;;;;;;10.07;5.30;;;;;;;;;;6154593;28;20059;-67
2023/02/07 06:55:39;;;;;;;9.82;5.57;;;;;;;;;;6153572;28;20453;-67
2023/02/07 06:58:40;;;;;;;13.35;5.85;;;;;;;;;;6153142;28;20067;-66
2023/02/07 07:01:42;;;;;;;12.25;5.80;;;;;;;;;;6153659;28;20047;-67
2023/02/07 07:04:44;;;;;;;13.80;6.65;;;;;;;;;;6157732;28;20121;-67
2023/02/07 07:07:47;;;;;;;11.05;6.18;;;;;;;;;;6160404;28;20055;-67
2023/02/07 07:10:49;;;;;;;16.15;6.85;;;;;;;;;;6162085;28;20326;-67
2023/02/07 07:13:51;;;;;;;11.57;6.45;;;;;;;;;;6158417;28;20046;-67
2023/02/07 07:16:54;;;;;;;15.35;6.90;;;;;;;;;;6156607;28;20059;-67
2023/02/07 07:19:55;;;;;;;12.15;7.25;;;;;;;;;;6154700;28;20180;-67
2023/02/07 07:22:58;;;;;;;14.57;7.07;;;;;;;;;;6156328;28;20047;-67
2023/02/07 07:26:00;;;;;;;15.68;7.05;;;;;;;;;;6154263;28;20240;-67
2023/02/07 07:29:02;;;;;;;14.52;7.18;;;;;;;;;;6159627;28;20082;-67
2023/02/07 07:32:03;;;;;;;15.98;7.53;;;;;;;;;;6160141;28;20388;-67
2023/02/07 07:35:06;;;;;;;17.58;7.45;;;;;;;;;;6162275;28;20063;-67
2023/02/07 07:38:09;;;;;;;13.40;7.38;;;;;;;;;;6159453;28;20059;-67
2023/02/07 07:41:10;;;;;;;16.15;6.70;;;;;;;;;;6158799;28;20061;-67
2023/02/07 07:44:12;;;;;;;14.32;6.50;;;;;;;;;;6159514;28;20279;-68
2023/02/07 07:47:14;;;;;;;14.70;7.15;;;;;;;;;;6158679;28;20390;-67
2023/02/07 07:50:15;;;;;;;14.13;7.68;;;;;;;;;;6157713;28;20102;-67
2023/02/07 07:53:20;;;;;;;11.80;6.88;;;;;;;;;;6159441;28;20194;-67
2023/02/07 07:56:21;;;;;;;12.48;6.57;;;;;;;;;;6160781;28;20172;-67
2023/02/07 07:59:23;;;;;;;13.73;6.03;;;;;;;;;;6163092;28;20055;-67
2023/02/07 08:02:25;;;;;;;13.23;7.18;;;;;;;;;;6157294;28;20061;-67
2023/02/07 08:05:26;;;;;;;13.70;6.30;;;;;;;;;;6159647;28;20059;-67
2023/02/07 08:08:29;;;;;;;9.95;5.72;;;;;;;;;;6159390;28;20074;-67
2023/02/07 08:11:31;;;;;;;13.98;6.13;;;;;;;;;;6157916;28;20361;-68
2023/02/07 08:14:33;;;;;;;8.50;4.82;;;;;;;;;;6158097;28;20050;-67
2023/02/07 08:17:34;;;;;;;13.25;4.85;;;;;;;;;;6159982;28;20051;-67
2023/02/07 08:20:36;;;;;;;8.40;5.15;;;;;;;;;;6161067;28;20061;-67
2023/02/07 08:23:39;;;;;;;7.65;4.95;;;;;;;;;;6159381;28;20070;-68
2023/02/07 08:26:41;;;;;;;8.52;5.05;;;;;;;;;;6158419;28;20445;-67
2023/02/07 08:29:44;;;;;;;9.48;4.80;;;;;;;;;;6158901;28;20059;-68
2023/02/07 08:32:46;;;;;;;8.10;4.85;;;;;;;;;;6160221;28;20078;-67
2023/02/07 08:35:50;;;;;;;9.40;5.43;;;;;;;;;;6157801;28;20230;-68
2023/02/07 08:38:53;;;;;;;9.77;5.05;;;;;;;;;;6155247;28;20051;-67
2023/02/07 08:41:54;;;;;;;7.25;4.18;;;;;;;;;;6158028;28;20390;-67
2023/02/07 08:44:56;;;;;;;9.48;4.80;;;;;;;;;;6156817;28;20051;-67
2023/02/07 08:47:58;;;;;;;9.20;5.03;;;;;;;;;;6157543;28;20216;-68
2023/02/07 08:51:05;;;;;;;8.23;4.68;;;;;;;;;;6159553;28;20110;-67
2023/02/07 08:54:08;;;;;;;10.35;5.63;;;;;;;;;;6157224;28;20223;-68
2023/02/07 08:57:09;;;;;;;8.90;4.55;;;;;;;;;;6160623;28;20122;-68
2023/02/07 09:00:12;;;;;;;8.35;4.68;;;;;;;;;;6158576;28;20078;-68
2023/02/07 09:03:14;;;;;;;9.30;4.95;;;;;;;;;;6160062;28;20046;-68
2023/02/07 09:06:16;;;;;;;11.27;5.15;;;;;;;;;;6158162;28;20057;-68
2023/02/07 09:09:19;;;;;;;8.30;4.75;;;;;;;;;;6157937;28;20065;-68
2023/02/07 09:12:20;;;;;;;8.10;4.60;;;;;;;;;;6158078;28;20057;-68
2023/02/07 09:15:22;;;;;;;12.20;4.82;;;;;;;;;;6160344;28;20066;-68
2023/02/07 09:18:25;;;;;;;9.95;4.88;;;;;;;;;;6156708;28;20051;-68
2023/02/07 09:21:26;;;;;;;8.23;5.18;;;;;;;;;;6157079;28;20043;-68
2023/02/07 09:24:29;;;;;;;10.18;6.00;;;;;;;;;;6159103;28;20054;-68
2023/02/07 09:27:31;;;;;;;9.63;4.63;;;;;;;;;;6155301;28;20247;-68
2023/02/07 09:30:33;;;;;;;14.95;5.82;;;;;;;;;;6158210;28;20102;-68
2023/02/07 09:33:34;;;;;;;11.05;5.30;;;;;;;;;;6156267;28;20299;-68
2023/02/07 09:36:36;;;;;;;12.77;5.00;;;;;;;;;;6158300;28;20055;-68
2023/02/07 09:39:42;;;;;;;15.48;5.30;;;;;;;;;;6156551;28;20114;-68
2023/02/07 09:42:49;;;;;;;12.10;5.85;;;;;;;;;;6156514;28;20050;-68
2023/02/07 09:45:54;;;;;;;7.50;5.07;;;;;;;;;;6156879;28;20055;-68
2023/02/07 09:49:00;;;;;;;11.18;5.45;;;;;;;;;;6157211;28;20051;-67
2023/02/07 09:52:04;;;;;;;10.75;5.65;;;;;;;;;;6156844;28;20105;-67
2023/02/07 09:55:11;;;;;;;9.30;5.03;;;;;;;;;;6158938;28;20061;-68
2023/02/07 09:58:15;;;;;;;8.25;4.95;;;;;;;;;;6155136;28;20066;-68
2023/02/07 10:01:20;;;;;;;9.95;5.68;;;;;;;;;;6156660;28;20054;-67
2023/02/07 10:04:29;;;;;;;8.63;5.25;;;;;;;;;;6156207;28;20051;-68
2023/02/07 10:07:31;;;;;;;8.27;5.65;;;;;;;;;;6156375;28;20059;-68
2023/02/07 10:10:39;;;;;;;8.13;5.03;;;;;;;;;;6157901;28;20216;-68
2023/02/07 10:13:50;;;;;;;10.13;5.18;;;;;;;;;;6157812;28;20054;-68
2023/02/07 10:17:06;;;;;;;11.18;5.43;;;;;;;;;;6156547;28;20199;-67
2023/02/07 10:20:25;;;;;;;10.68;4.97;;;;;;;;;;6156365;28;20327;-67
2023/02/07 10:23:37;;;;;;;9.05;5.30;;;;;;;;;;6155963;28;20075;-68
2023/02/07 10:26:45;;;;;;;10.18;5.15;;;;;;;;;;6153349;28;20125;-67
2023/02/07 10:29:56;;;;;;;9.20;4.78;;;;;;;;;;6154030;28;20058;-67
2023/02/07 10:33:02;;;;;;;11.15;5.72;;;;;;;;;;6158619;28;20058;-68
2023/02/07 10:36:18;;;;;;;8.52;4.65;;;;;;;;;;6159953;28;20055;-68
2023/02/07 10:39:23;;;;;;;8.77;5.25;;;;;;;;;;6159734;28;20062;-67
2023/02/07 10:42:27;;;;;;;10.55;5.88;;;;;;;;;;6163423;28;20098;-68
2023/02/07 10:45:29;;;;;;;11.23;5.38;;;;;;;;;;6157835;28;20346;-67
2023/02/07 10:48:31;;;;;;;10.30;5.85;;;;;;;;;;6156018;28;20055;-68
2023/02/07 10:51:35;;;;;;;11.68;6.13;;;;;;;;;;6156046;28;20057;-68
2023/02/07 10:54:50;;;;;;;9.98;6.13;;;;;;;;;;6158888;28;20062;-68
2023/02/07 10:57:56;;;;;;;11.27;5.90;;;;;;;;;;6150149;28;20047;-68
2023/02/07 11:00:58;;;;;;;12.10;5.53;;;;;;;;;;6159061;28;20053;-67
2023/02/07 11:04:00;;;;;;;9.85;5.93;;;;;;;;;;6156452;28;20303;-68
2023/02/07 11:07:03;;;;;;;10.13;5.68;;;;;;;;;;6151679;28;20743;-67
2023/02/07 11:10:15;;;;;;;10.60;5.80;;;;;;;;;;6157077;28;20074;-68
2023/02/07 11:13:20;;;;;;;10.40;5.38;;;;;;;;;;6157480;28;20240;-69
2023/02/07 11:16:23;;;;;;;8.00;5.90;;;;;;;;;;6154783;28;20061;-68
2023/02/07 11:19:27;;;;;;;10.33;6.63;;;;;;;;;;6154354;28;20043;-68
2023/02/07 11:22:29;;;;;;;9.23;6.50;;;;;;;;;;6154130;28;20267;-68
2023/02/07 11:25:32;;;;;;;12.27;6.15;;;;;;;;;;6155664;28;20070;-68
2023/02/07 11:28:35;;;;;;;12.30;6.90;;;;;;;;;;6152640;28;20052;-68
2023/02/07 11:31:37;;;;;;;11.93;6.30;;;;;;;;;;6155362;28;20051;-68
2023/02/07 11:34:45;;;;;;;11.45;6.68;;;;;;;;;;6156657;28;20050;-67
2023/02/07 11:37:48;;;;;;;14.40;5.63;;;;;;;;;;6154714;28;20326;-67
2023/02/07 11:40:51;;;;;;;11.30;6.30;;;;;;;;;;6155218;28;20046;-67
2023/02/07 11:43:59;;;;;;;10.35;6.80;;;;;;;;;;6155088;28;20360;-68
2023/02/07 11:47:04;;;;;;;12.20;5.80;;;;;;;;;;6156911;28;20051;-67
2023/02/07 11:50:07;;;;;;;8.85;5.60;;;;;;;;;;6155384;28;20150;-67
2023/02/07 11:53:23;;;;;;;15.30;6.15;;;;;;;;;;6157956;28;20062;-67
2023/02/07 11:56:26;;;;;;;8.68;5.93;;;;;;;;;;6162407;28;20050;-67
2023/02/07 11:59:31;;;;;;;8.35;5.35;;;;;;;;;;6161595;28;20118;-68
2023/02/07 12:02:32;;;;;;;;;;;;;;;;;;6160226;28;20051;-67
2023/02/07 12:05:35;;;;;;;11.52;6.30;;;;;;;;;;6157381;28;19934;-67
2023/02/07 12:08:38;;;;;;;10.27;6.20;;;;;;;;;;6158861;28;20114;-66
2023/02/07 12:11:40;;;;;;;11.52;6.68;;;;;;;;;;6159456;28;20480;-67
2023/02/07 12:14:48;;;;;;;12.98;6.53;;;;;;;;;;6162950;28;20069;-67
2023/02/07 12:17:57;;;;;;;12.70;6.15;;;;;;;;;;6158269;28;20110;-67
2023/02/07 12:21:04;;;;;;;9.95;6.13;;;;;;;;;;6157091;28;20055;-67
2023/02/07 12:24:10;;;;;;;12.45;6.03;;;;;;;;;;6158282;28;20054;-67
2023/02/07 12:27:14;;;;;;;8.07;5.57;;;;;;;;;;6157354;28;20102;-67
2023/02/07 12:30:22;;;;;;;11.38;6.22;;;;;;;;;;6159494;28;20057;-67
2023/02/07 12:33:30;;;;;;;9.05;5.80;;;;;;;;;;6159244;28;20047;-67
2023/02/07 12:36:34;;;;;;;11.48;6.65;;;;;;;;;;6161651;28;20055;-66
2023/02/07 12:39:40;;;;;;;10.63;6.32;;;;;;;;;;6158099;28;20055;-67
2023/02/07 12:42:44;;;;;;;9.85;6.05;;;;;;;;;;6155955;28;20101;-67
2023/02/07 12:45:58;;;;;;;10.32;6.32;;;;;;;;;;6158948;28;20186;-67
2023/02/07 12:49:27;;;;;;;9.50;5.63;;;;;;;;;;6157718;28;20174;-67
2023/02/07 12:52:36;;;;;;;9.40;5.80;;;;;;;;;;6159675;28;20053;-67
2023/02/07 12:55:46;;;;;;;8.40;6.15;;;;;;;;;;6157875;28;20070;-67
2023/02/07 12:58:53;;;;;;;13.05;6.55;;;;;;;;;;6157613;28;20059;-67
2023/02/07 13:02:03;;;;;;;9.07;6.00;;;;;;;;;;6159445;28;20051;-67
2023/02/07 13:05:30;;;;;;;9.45;6.00;;;;;;;;;;6157761;28;20051;-67
2023/02/07 13:08:42;;;;;;;7.30;5.30;;;;;;;;;;6156483;28;20055;-67
2023/02/07 13:11:49;;;;;;;9.43;5.88;;;;;;;;;;6157852;28;20327;-67
2023/02/07 13:15:00;;;;;;;8.30;5.63;;;;;;;;;;6158214;28;20051;-67
2023/02/07 13:18:07;;;;;;;10.02;6.13;;;;;;;;;;6156673;28;20113;-67
2023/02/07 13:21:16;;;;;;;8.32;5.65;;;;;;;;;;6159401;28;20055;-67
2023/02/07 13:24:20;;;;;;;10.30;6.28;;;;;;;;;;6157737;28;20065;-67
2023/02/07 13:27:23;;;;;;;8.68;5.70;;;;;;;;;;6155072;28;20082;-66
2023/02/07 13:30:26;;;;;;;11.05;6.40;;;;;;;;;;6156776;28;20243;-66
2023/02/07 13:33:32;;;;;;;8.95;6.15;;;;;;;;;;6155121;28;20107;-68
2023/02/07 13:36:38;;;;;;;9.20;5.97;;;;;;;;;;6159212;28;20058;-69
2023/02/07 13:39:46;;;;;;;10.20;6.47;;;;;;;;;;6157515;28;20100;-72
2023/02/07 13:42:51;;;;;;;96.65;53.58;;;;;;;;;;6156957;28;20364;-70
2023/02/07 13:45:56;;;;;;;30.67;17.40;;;;;;;;;;6157679;28;20047;-68
2023/02/07 13:49:03;;;;;;;9.23;6.70;;;;;;;;;;6158111;28;20095;-68
2023/02/07 13:52:07;;;;;;;9.45;6.25;;;;;;;;;;6157938;28;20200;-68
2023/02/07 13:55:18;;;;;;;11.30;6.57;;;;;;;;;;6157045;28;20109;-68
2023/02/07 14:02:17;;;;;;;8.52;5.70;;;;;;;;;;6159065;28;20247;-68
2023/02/07 14:05:23;;;;;;;8.73;6.40;;;;;;;;;;6159522;28;20055;-68
2023/02/07 14:08:25;;;;;;;13.88;7.05;;;;;;;;;;6154682;28;20327;-68
2023/02/07 14:11:34;;;;;;;8.60;6.80;;;;;;;;;;6154129;28;20059;-69
2023/02/07 14:14:37;;;;;;;8.90;6.38;;;;;;;;;;6158888;28;20047;-68
2023/02/07 14:17:58;;;;;;;12.83;6.43;;;;;;;;;;6155902;28;20051;-69
2023/02/07 14:21:03;;;;;;;11.00;6.95;;;;;;;;;;6158338;28;20534;-69
2023/02/07 14:24:21;;;;;;;9.15;6.65;;;;;;;;;;6159521;28;20059;-68
2023/02/07 14:27:28;;;;;;;10.07;6.85;;;;;;;;;;6152403;28;20051;-68
2023/02/07 14:30:36;;;;;;;9.25;6.70;;;;;;;;;;6156041;28;20114;-68
2023/02/07 14:33:39;;;;;;;8.15;6.68;;;;;;;;;;6157153;28;20067;-69
2023/02/07 14:36:42;;;;;;;10.48;7.00;;;;;;;;;;6154933;28;20051;-70
2023/02/07 14:39:44;;;;;;;9.40;6.45;;;;;;;;;;6156688;28;20047;-69
2023/02/07 14:42:54;;;;;;;10.32;6.80;;;;;;;;;;6156395;28;20788;-69
2023/02/07 14:46:09;;;;;;;9.15;6.75;;;;;;;;;;6155061;28;20062;-69
2023/02/07 14:49:15;;;;;;;10.18;7.03;;;;;;;;;;6156964;28;20118;-69
2023/02/07 14:52:23;;;;;;;14.15;7.80;;;;;;;;;;6154374;28;20059;-69
2023/02/07 14:55:28;;;;;;;8.82;6.50;;;;;;;;;;6157402;28;20246;-69
2023/02/07 14:58:35;;;;;;;8.95;6.95;;;;;;;;;;6157118;28;20051;-69
2023/02/07 15:01:37;;;;;;;10.38;7.20;;;;;;;;;;6157021;28;20061;-70
2023/02/07 15:04:43;;;;;;;44.25;31.70;;;;;;;;;;6154041;28;20047;-71
2023/02/07 15:07:46;;;;;;;18.63;12.98;;;;;;;;;;6156042;28;20125;-72
2023/02/07 15:10:54;;;;;;;13.05;8.15;;;;;;;;;;6156395;28;20063;-69
2023/02/07 15:13:57;;;;;;;11.27;7.32;;;;;;;;;;6155299;28;20063;-69
2023/02/07 15:16:59;;;;;;;12.75;7.72;;;;;;;;;;6155811;28;20061;-69
2023/02/07 15:20:01;;;;;;;13.57;7.85;;;;;;;;;;6157196;28;20059;-69
2023/02/07 15:23:06;;;;;;;12.98;8.18;;;;;;;;;;6156466;28;20295;-69
2023/02/07 15:26:08;;;;;;;9.30;6.97;;;;;;;;;;6156138;28;20325;-69
2023/02/07 15:29:20;;;;;;;10.80;7.20;;;;;;;;;;6159114;28;20063;-69
2023/02/07 15:32:23;;;;;;;10.32;7.47;;;;;;;;;;6160034;28;20050;-69
2023/02/07 15:35:26;;;;;;;10.07;7.50;;;;;;;;;;6159997;28;20059;-69
2023/02/07 15:38:29;;;;;;;9.88;7.15;;;;;;;;;;6161273;28;20111;-69
2023/02/07 15:41:32;;;;;;;13.07;8.00;;;;;;;;;;6160560;28;20080;-69
2023/02/07 15:44:47;;;;;;;12.10;6.97;;;;;;;;;;6160708;28;20059;-69
2023/02/07 15:47:56;;;;;;;9.68;6.45;;;;;;;;;;6160294;28;20047;-69
2023/02/07 15:51:00;;;;;;;9.90;7.03;;;;;;;;;;6159230;28;20047;-68
2023/02/07 15:54:03;;;;;;;;;;;;;;;;;;6158742;28;20062;-69
2023/02/07 15:57:06;;;;;;;11.18;7.15;;;;;;;;;;6163491;28;20090;-68
2023/02/07 16:00:13;;;;;;;13.32;7.50;;;;;;;;;;6159709;28;20126;-68
2023/02/07 16:03:19;;;;;;;13.20;7.30;;;;;;;;;;6161309;28;20047;-68
2023/02/07 16:06:22;;;;;;;11.32;7.13;;;;;;;;;;6157887;28;20057;-69
2023/02/07 16:09:40;;;;;;;12.68;7.03;;;;;;;;;;6158736;28;20046;-69
2023/02/07 16:12:48;;;;;;;11.93;6.47;;;;;;;;;;6159322;28;20283;-68
2023/02/07 16:15:55;;;;;;;11.10;7.05;;;;;;;;;;6160676;28;20283;-68
2023/02/07 16:19:05;;;;;;;12.48;6.70;;;;;;;;;;6159727;28;20069;-68
2023/02/07 16:22:10;;;;;;;9.60;6.68;;;;;;;;;;6159007;28;20059;-68
2023/02/07 16:25:16;;;;;;;12.05;7.13;;;;;;;;;;6160420;28;20499;-68
2023/02/07 16:28:18;;;;;;;10.73;7.00;;;;;;;;;;6155505;28;20051;-68
2023/02/07 16:31:19;;;;;;;9.13;6.63;;;;;;;;;;6158115;28;20063;-67
2023/02/07 16:34:22;;;;;;;9.80;5.80;;;;;;;;;;6157129;28;20134;-67
2023/02/07 16:37:24;;;;;;;12.20;6.97;;;;;;;;;;6158018;28;20291;-67
2023/02/07 16:40:27;;;;;;;10.45;6.50;;;;;;;;;;6159109;28;20051;-68
2023/02/07 16:43:36;;;;;;;10.02;5.93;;;;;;;;;;6158963;28;20368;-68
2023/02/07 16:46:38;;;;;;;10.40;6.35;;;;;;;;;;6157702;28;20101;-68
2023/02/07 16:49:40;;;;;;;12.98;5.85;;;;;;;;;;6157805;28;20055;-67
2023/02/07 16:52:41;;;;;;;12.45;6.68;;;;;;;;;;6158852;28;20198;-68
2023/02/07 16:55:44;;;;;;;11.40;6.53;;;;;;;;;;6158365;28;20296;-68
2023/02/07 16:58:46;;;;;;;10.75;6.60;;;;;;;;;;6161257;28;20067;-67
2023/02/07 17:01:49;;;;;;;11.68;6.53;;;;;;;;;;6158854;28;20059;-68
2023/02/07 17:04:51;;;;;;;13.77;6.90;;;;;;;;;;6157476;28;20063;-68
2023/02/07 17:07:52;;;;;;;12.07;6.55;;;;;;;;;;6157712;28;20059;-68
2023/02/07 17:10:58;;;;;;;12.25;6.25;;;;;;;;;;6156711;28;20177;-67
2023/02/07 17:14:00;;;;;;;12.32;6.43;;;;;;;;;;6160268;28;20108;-67
2023/02/07 17:17:01;;;;;;;13.15;6.60;;;;;;;;;;6159564;28;20047;-68
2023/02/07 17:20:19;;;;;;;13.32;6.45;;;;;;;;;;6159300;28;20335;-67
2023/02/07 17:23:23;;;;;;;12.07;6.82;;;;;;;;;;6158454;28;20059;-67
2023/02/07 17:26:30;;;;;;;9.90;6.10;;;;;;;;;;6155787;28;20044;-67
2023/02/07 17:29:31;;;;;;;12.43;6.57;;;;;;;;;;6156619;28;20362;-67
2023/02/07 17:32:33;;;;;;;12.65;6.95;;;;;;;;;;6157299;28;20047;-68
2023/02/07 17:35:35;;;;;;;12.05;6.30;;;;;;;;;;6155429;28;20062;-68
2023/02/07 17:38:37;;;;;;;11.25;6.53;;;;;;;;;;6156503;28;20051;-67
2023/02/07 17:41:40;;;;;;;13.05;6.18;;;;;;;;;;6159159;28;20070;-67
2023/02/07 17:44:42;;;;;;;12.48;7.13;;;;;;;;;;6157972;28;20335;-68
2023/02/07 17:47:43;;;;;;;13.23;7.10;;;;;;;;;;6156113;28;20334;-68
2023/02/07 17:50:45;;;;;;;12.80;6.43;;;;;;;;;;6157579;28;20053;-68
2023/02/07 17:53:47;;;;;;;12.27;6.82;;;;;;;;;;6157346;28;20479;-67
2023/02/07 17:56:50;;;;;;;13.32;6.90;;;;;;;;;;6159315;28;20102;-67
2023/02/07 17:59:51;;;;;;;9.05;6.18;;;;;;;;;;6160938;28;20054;-67
2023/02/07 18:02:54;;;;;;;12.50;6.32;;;;;;;;;;6160187;28;20039;-68
2023/02/07 18:05:56;;;;;;;14.55;7.28;;;;;;;;;;6157002;28;20050;-68
2023/02/07 18:08:58;;;;;;;13.15;7.03;;;;;;;;;;6160307;28;20070;-67
2023/02/07 18:12:04;;;;;;;16.33;7.50;;;;;;;;;;6158180;28;20055;-67
2023/02/07 18:15:07;;;;;;;12.70;6.97;;;;;;;;;;6157702;28;20059;-67
2023/02/07 18:18:10;;;;;;;15.00;7.10;;;;;;;;;;6157791;28;20053;-67